sensor_id;sensor_type;location;lat;lon;timestamp;P1;durP1;ratioP1;P2;durP2;ratioP2
37945;SDS011;23769;52.478;13.448;2023-06-14T00:02:11;3.50;;;2.17;;
37945;SDS011;23769;52.478;13.448;2023-06-14T00:04:39;2.35;;;2.15;;
37945;SDS011;23769;52.478;13.448;2023-06-14T00:07:07;3.88;;;2.67;;
37945;SDS011;23769;52.478;13.448;2023-06-14T00:09:35;5.13;;;2.33;;
37945;SDS011;23769;52.478;13.448;2023-06-14T00:12:03;3.92;;;2.40;;
37945;SDS011;23769;52.478;13.448;2023-06-14T00:14:31;4.85;;;2.38;;
37945;SDS011;23769;52.478;13.448;2023-06-14T00:16:58;4.55;;;2.30;;
37945;SDS011;23769;52.478;13.448;2023-06-14T00:19:26;8.45;;;2.47;;
37945;SDS011;23769;52.478;13.448;2023-06-14T00:21:57;6.28;;;2.45;;
37945;SDS011;23769;52.478;13.448;2023-06-14T00:24:25;3.40;;;2.47;;
37945;SDS011;23769;52.478;13.448;2023-06-14T00:26:52;6.45;;;2.88;;
37945;SDS011;23769;52.478;13.448;2023-06-14T00:29:21;6.18;;;2.72;;
37945;SDS011;23769;52.478;13.448;2023-06-14T00:31:48;5.20;;;2.47;;
37945;SDS011;23769;52.478;13.448;2023-06-14T00:34:16;6.95;;;2.65;;
37945;SDS011;23769;52.478;13.448;2023-06-14T00:36:43;7.20;;;2.90;;
37945;SDS011;23769;52.478;13.448;2023-06-14T00:39:11;5.28;;;2.60;;
37945;SDS011;23769;52.478;13.448;2023-06-14T00:41:39;6.47;;;2.72;;
37945;SDS011;23769;52.478;13.448;2023-06-14T00:44:07;3.80;;;2.80;;
37945;SDS011;23769;52.478;13.448;2023-06-14T00:46:35;5.35;;;2.90;;
37945;SDS011;23769;52.478;13.448;2023-06-14T00:49:03;5.78;;;3.40;;
37945;SDS011;23769;52.478;13.448;2023-06-14T00:51:31;4.80;;;2.90;;
37945;SDS011;23769;52.478;13.448;2023-06-14T00:53:59;4.78;;;2.80;;
37945;SDS011;23769;52.478;13.448;2023-06-14T00:56:28;5.05;;;3.33;;
37945;SDS011;23769;52.478;13.448;2023-06-14T00:58:56;4.90;;;3.53;;
37945;SDS011;23769;52.478;13.448;2023-06-14T01:01:25;6.15;;;3.35;;
37945;SDS011;23769;52.478;13.448;2023-06-14T01:03:53;5.18;;;3.22;;
37945;SDS011;23769;52.478;13.448;2023-06-14T01:06:23;5.03;;;3.45;;
37945;SDS011;23769;52.478;13.448;2023-06-14T01:11:22;10.50;;;5.43;;
37945;SDS011;23769;52.478;13.448;2023-06-14T01:13:52;4.35;;;3.40;;
37945;SDS011;23769;52.478;13.448;2023-06-14T01:16:20;5.70;;;3.75;;
37945;SDS011;23769;52.478;13.448;2023-06-14T01:18:48;6.30;;;3.78;;
37945;SDS011;23769;52.478;13.448;2023-06-14T01:21:22;5.05;;;3.60;;
37945;SDS011;23769;52.478;13.448;2023-06-14T01:23:51;6.20;;;3.92;;
37945;SDS011;23769;52.478;13.448;2023-06-14T01:26:20;7.13;;;3.58;;
37945;SDS011;23769;52.478;13.448;2023-06-14T01:28:47;3.88;;;3.33;;
37945;SDS011;23769;52.478;13.448;2023-06-14T01:31:17;7.40;;;3.50;;
37945;SDS011;23769;52.478;13.448;2023-06-14T01:33:45;5.60;;;3.70;;
37945;SDS011;23769;52.478;13.448;2023-06-14T01:36:13;5.60;;;3.67;;
37945;SDS011;23769;52.478;13.448;2023-06-14T01:38:40;6.78;;;3.75;;
37945;SDS011;23769;52.478;13.448;2023-06-14T01:41:10;7.70;;;4.07;;
37945;SDS011;23769;52.478;13.448;2023-06-14T01:43:38;6.13;;;4.03;;
37945;SDS011;23769;52.478;13.448;2023-06-14T01:46:07;4.28;;;3.65;;
37945;SDS011;23769;52.478;13.448;2023-06-14T01:48:38;5.68;;;4.43;;
37945;SDS011;23769;52.478;13.448;2023-06-14T01:51:05;7.47;;;4.20;;
37945;SDS011;23769;52.478;13.448;2023-06-14T01:53:36;5.45;;;3.83;;
37945;SDS011;23769;52.478;13.448;2023-06-14T01:56:04;6.50;;;4.20;;
37945;SDS011;23769;52.478;13.448;2023-06-14T01:58:34;6.78;;;4.05;;
37945;SDS011;23769;52.478;13.448;2023-06-14T02:01:02;5.80;;;4.05;;
37945;SDS011;23769;52.478;13.448;2023-06-14T02:03:30;8.25;;;4.10;;
37945;SDS011;23769;52.478;13.448;2023-06-14T02:05:58;6.20;;;4.80;;
37945;SDS011;23769;52.478;13.448;2023-06-14T02:08:26;6.80;;;4.53;;
37945;SDS011;23769;52.478;13.448;2023-06-14T02:10:53;6.28;;;4.55;;
37945;SDS011;23769;52.478;13.448;2023-06-14T02:13:21;10.40;;;5.13;;
37945;SDS011;23769;52.478;13.448;2023-06-14T02:15:50;6.65;;;4.25;;
37945;SDS011;23769;52.478;13.448;2023-06-14T02:18:19;6.32;;;4.70;;
37945;SDS011;23769;52.478;13.448;2023-06-14T02:20:47;9.18;;;5.15;;
37945;SDS011;23769;52.478;13.448;2023-06-14T02:23:15;7.25;;;4.82;;
37945;SDS011;23769;52.478;13.448;2023-06-14T02:25:42;8.15;;;4.72;;
37945;SDS011;23769;52.478;13.448;2023-06-14T02:28:11;7.82;;;5.05;;
37945;SDS011;23769;52.478;13.448;2023-06-14T02:30:39;6.30;;;4.53;;
37945;SDS011;23769;52.478;13.448;2023-06-14T02:33:08;6.35;;;4.28;;
37945;SDS011;23769;52.478;13.448;2023-06-14T02:35:37;7.43;;;5.10;;
37945;SDS011;23769;52.478;13.448;2023-06-14T02:38:05;5.93;;;4.55;;
37945;SDS011;23769;52.478;13.448;2023-06-14T02:40:33;7.20;;;4.70;;
37945;SDS011;23769;52.478;13.448;2023-06-14T02:43:00;7.50;;;4.43;;
37945;SDS011;23769;52.478;13.448;2023-06-14T02:45:28;6.90;;;4.43;;
37945;SDS011;23769;52.478;13.448;2023-06-14T02:47:56;6.88;;;5.00;;
37945;SDS011;23769;52.478;13.448;2023-06-14T02:50:25;9.45;;;5.35;;
37945;SDS011;23769;52.478;13.448;2023-06-14T02:52:53;7.35;;;4.70;;
37945;SDS011;23769;52.478;13.448;2023-06-14T02:55:22;9.98;;;5.20;;
37945;SDS011;23769;52.478;13.448;2023-06-14T02:57:49;8.85;;;5.03;;
37945;SDS011;23769;52.478;13.448;2023-06-14T03:00:18;8.15;;;5.05;;
37945;SDS011;23769;52.478;13.448;2023-06-14T03:02:45;7.47;;;5.32;;
37945;SDS011;23769;52.478;13.448;2023-06-14T03:05:13;12.70;;;5.50;;
37945;SDS011;23769;52.478;13.448;2023-06-14T03:07:42;9.00;;;5.72;;
37945;SDS011;23769;52.478;13.448;2023-06-14T03:10:10;9.57;;;5.10;;
37945;SDS011;23769;52.478;13.448;2023-06-14T03:12:38;13.80;;;6.88;;
37945;SDS011;23769;52.478;13.448;2023-06-14T03:15:06;8.23;;;5.68;;
37945;SDS011;23769;52.478;13.448;2023-06-14T03:17:34;9.35;;;6.38;;
37945;SDS011;23769;52.478;13.448;2023-06-14T03:20:04;10.27;;;5.72;;
37945;SDS011;23769;52.478;13.448;2023-06-14T03:22:33;8.70;;;5.53;;
37945;SDS011;23769;52.478;13.448;2023-06-14T03:25:03;9.05;;;5.13;;
37945;SDS011;23769;52.478;13.448;2023-06-14T03:27:30;6.50;;;5.03;;
37945;SDS011;23769;52.478;13.448;2023-06-14T03:29:58;7.43;;;5.78;;
37945;SDS011;23769;52.478;13.448;2023-06-14T03:32:26;8.30;;;5.63;;
37945;SDS011;23769;52.478;13.448;2023-06-14T03:34:54;8.98;;;5.68;;
37945;SDS011;23769;52.478;13.448;2023-06-14T03:37:21;7.93;;;5.40;;
37945;SDS011;23769;52.478;13.448;2023-06-14T03:39:49;7.07;;;5.05;;
37945;SDS011;23769;52.478;13.448;2023-06-14T03:42:19;7.72;;;5.57;;
37945;SDS011;23769;52.478;13.448;2023-06-14T03:44:47;8.68;;;5.20;;
37945;SDS011;23769;52.478;13.448;2023-06-14T03:47:14;6.35;;;5.03;;
37945;SDS011;23769;52.478;13.448;2023-06-14T03:49:42;8.52;;;5.45;;
37945;SDS011;23769;52.478;13.448;2023-06-14T03:52:10;9.13;;;5.43;;
37945;SDS011;23769;52.478;13.448;2023-06-14T03:54:39;8.13;;;5.05;;
37945;SDS011;23769;52.478;13.448;2023-06-14T03:57:08;5.38;;;4.78;;
37945;SDS011;23769;52.478;13.448;2023-06-14T03:59:38;6.90;;;5.32;;
37945;SDS011;23769;52.478;13.448;2023-06-14T04:02:06;9.35;;;4.95;;
37945;SDS011;23769;52.478;13.448;2023-06-14T04:04:34;9.95;;;5.30;;
37945;SDS011;23769;52.478;13.448;2023-06-14T04:07:03;8.80;;;4.80;;
37945;SDS011;23769;52.478;13.448;2023-06-14T04:09:30;8.45;;;5.20;;
37945;SDS011;23769;52.478;13.448;2023-06-14T04:14:26;7.43;;;5.22;;
37945;SDS011;23769;52.478;13.448;2023-06-14T04:16:55;6.57;;;4.93;;
37945;SDS011;23769;52.478;13.448;2023-06-14T04:19:22;9.10;;;4.72;;
37945;SDS011;23769;52.478;13.448;2023-06-14T04:21:49;8.45;;;5.60;;
37945;SDS011;23769;52.478;13.448;2023-06-14T04:24:17;6.20;;;4.82;;
37945;SDS011;23769;52.478;13.448;2023-06-14T04:26:44;9.13;;;4.47;;
37945;SDS011;23769;52.478;13.448;2023-06-14T04:29:13;7.43;;;4.93;;
37945;SDS011;23769;52.478;13.448;2023-06-14T04:31:41;10.82;;;5.47;;
37945;SDS011;23769;52.478;13.448;2023-06-14T04:34:10;6.22;;;4.60;;
37945;SDS011;23769;52.478;13.448;2023-06-14T04:36:41;7.22;;;4.85;;
37945;SDS011;23769;52.478;13.448;2023-06-14T04:39:14;4.68;;;3.75;;
37945;SDS011;23769;52.478;13.448;2023-06-14T04:41:42;4.13;;;3.70;;
37945;SDS011;23769;52.478;13.448;2023-06-14T04:44:10;6.35;;;4.32;;
37945;SDS011;23769;52.478;13.448;2023-06-14T04:46:37;8.57;;;6.15;;
37945;SDS011;23769;52.478;13.448;2023-06-14T04:49:12;7.50;;;3.60;;
37945;SDS011;23769;52.478;13.448;2023-06-14T04:51:40;5.60;;;3.53;;
37945;SDS011;23769;52.478;13.448;2023-06-14T04:54:07;8.75;;;5.18;;
37945;SDS011;23769;52.478;13.448;2023-06-14T04:56:39;7.28;;;4.75;;
37945;SDS011;23769;52.478;13.448;2023-06-14T04:59:07;5.18;;;4.20;;
37945;SDS011;23769;52.478;13.448;2023-06-14T05:01:36;6.95;;;4.80;;
37945;SDS011;23769;52.478;13.448;2023-06-14T05:04:03;9.52;;;6.97;;
37945;SDS011;23769;52.478;13.448;2023-06-14T05:06:32;5.57;;;3.72;;
37945;SDS011;23769;52.478;13.448;2023-06-14T05:08:59;6.63;;;4.68;;
37945;SDS011;23769;52.478;13.448;2023-06-14T05:11:27;6.47;;;4.97;;
37945;SDS011;23769;52.478;13.448;2023-06-14T05:13:54;6.00;;;4.78;;
37945;SDS011;23769;52.478;13.448;2023-06-14T05:16:24;6.95;;;4.85;;
37945;SDS011;23769;52.478;13.448;2023-06-14T05:18:54;8.05;;;5.05;;
37945;SDS011;23769;52.478;13.448;2023-06-14T05:21:21;6.72;;;5.00;;
37945;SDS011;23769;52.478;13.448;2023-06-14T05:23:50;6.85;;;4.65;;
37945;SDS011;23769;52.478;13.448;2023-06-14T05:26:17;5.82;;;5.22;;
37945;SDS011;23769;52.478;13.448;2023-06-14T05:28:44;7.13;;;5.22;;
37945;SDS011;23769;52.478;13.448;2023-06-14T05:31:12;6.40;;;4.63;;
37945;SDS011;23769;52.478;13.448;2023-06-14T05:33:39;9.25;;;5.38;;
37945;SDS011;23769;52.478;13.448;2023-06-14T05:36:06;7.80;;;5.07;;
37945;SDS011;23769;52.478;13.448;2023-06-14T05:38:33;8.80;;;5.45;;
37945;SDS011;23769;52.478;13.448;2023-06-14T05:41:02;6.03;;;4.82;;
37945;SDS011;23769;52.478;13.448;2023-06-14T05:43:29;8.43;;;5.82;;
37945;SDS011;23769;52.478;13.448;2023-06-14T05:45:56;9.45;;;5.50;;
37945;SDS011;23769;52.478;13.448;2023-06-14T05:48:24;9.65;;;6.10;;
37945;SDS011;23769;52.478;13.448;2023-06-14T05:50:51;10.35;;;6.22;;
37945;SDS011;23769;52.478;13.448;2023-06-14T05:53:18;10.07;;;6.03;;
37945;SDS011;23769;52.478;13.448;2023-06-14T05:55:46;8.50;;;5.53;;
37945;SDS011;23769;52.478;13.448;2023-06-14T05:58:14;14.52;;;6.53;;
37945;SDS011;23769;52.478;13.448;2023-06-14T06:00:41;12.55;;;5.75;;
37945;SDS011;23769;52.478;13.448;2023-06-14T06:03:08;11.07;;;5.53;;
37945;SDS011;23769;52.478;13.448;2023-06-14T06:05:36;7.53;;;5.18;;
37945;SDS011;23769;52.478;13.448;2023-06-14T06:08:03;11.70;;;5.80;;
37945;SDS011;23769;52.478;13.448;2023-06-14T06:10:31;9.55;;;5.55;;
37945;SDS011;23769;52.478;13.448;2023-06-14T06:12:58;9.50;;;6.15;;
37945;SDS011;23769;52.478;13.448;2023-06-14T06:15:27;13.73;;;5.53;;
37945;SDS011;23769;52.478;13.448;2023-06-14T06:17:54;11.48;;;6.05;;
37945;SDS011;23769;52.478;13.448;2023-06-14T06:20:21;12.48;;;8.35;;
37945;SDS011;23769;52.478;13.448;2023-06-14T06:22:53;7.43;;;5.35;;
37945;SDS011;23769;52.478;13.448;2023-06-14T06:25:20;15.65;;;6.13;;
37945;SDS011;23769;52.478;13.448;2023-06-14T06:27:51;7.90;;;5.85;;
37945;SDS011;23769;52.478;13.448;2023-06-14T06:30:18;8.23;;;6.10;;
37945;SDS011;23769;52.478;13.448;2023-06-14T06:32:47;10.63;;;5.43;;
37945;SDS011;23769;52.478;13.448;2023-06-14T06:35:15;11.15;;;6.38;;
37945;SDS011;23769;52.478;13.448;2023-06-14T06:37:42;11.85;;;5.78;;
37945;SDS011;23769;52.478;13.448;2023-06-14T06:40:10;10.75;;;6.05;;
37945;SDS011;23769;52.478;13.448;2023-06-14T06:42:37;10.85;;;5.80;;
37945;SDS011;23769;52.478;13.448;2023-06-14T06:45:05;7.43;;;5.18;;
37945;SDS011;23769;52.478;13.448;2023-06-14T06:47:32;7.85;;;5.25;;
37945;SDS011;23769;52.478;13.448;2023-06-14T06:50:01;11.77;;;5.50;;
37945;SDS011;23769;52.478;13.448;2023-06-14T06:52:29;9.23;;;4.90;;
37945;SDS011;23769;52.478;13.448;2023-06-14T06:54:56;8.38;;;5.40;;
37945;SDS011;23769;52.478;13.448;2023-06-14T06:57:24;7.28;;;4.90;;
37945;SDS011;23769;52.478;13.448;2023-06-14T06:59:51;6.22;;;4.57;;
37945;SDS011;23769;52.478;13.448;2023-06-14T07:02:18;9.77;;;5.22;;
37945;SDS011;23769;52.478;13.448;2023-06-14T07:04:45;8.82;;;4.88;;
37945;SDS011;23769;52.478;13.448;2023-06-14T07:07:14;9.10;;;4.72;;
37945;SDS011;23769;52.478;13.448;2023-06-14T07:09:41;8.80;;;5.35;;
37945;SDS011;23769;52.478;13.448;2023-06-14T07:12:09;6.95;;;4.40;;
37945;SDS011;23769;52.478;13.448;2023-06-14T07:14:36;7.68;;;4.72;;
37945;SDS011;23769;52.478;13.448;2023-06-14T07:17:04;9.55;;;5.45;;
37945;SDS011;23769;52.478;13.448;2023-06-14T07:19:31;8.43;;;5.07;;
37945;SDS011;23769;52.478;13.448;2023-06-14T07:21:58;8.82;;;4.90;;
37945;SDS011;23769;52.478;13.448;2023-06-14T07:24:27;6.63;;;4.85;;
37945;SDS011;23769;52.478;13.448;2023-06-14T07:26:54;5.80;;;4.28;;
37945;SDS011;23769;52.478;13.448;2023-06-14T07:29:22;8.50;;;4.47;;
37945;SDS011;23769;52.478;13.448;2023-06-14T07:31:49;7.65;;;4.72;;
37945;SDS011;23769;52.478;13.448;2023-06-14T07:34:16;11.30;;;5.05;;
37945;SDS011;23769;52.478;13.448;2023-06-14T07:36:44;7.93;;;4.63;;
37945;SDS011;23769;52.478;13.448;2023-06-14T07:39:11;9.25;;;4.47;;
37945;SDS011;23769;52.478;13.448;2023-06-14T07:41:40;8.95;;;4.50;;
37945;SDS011;23769;52.478;13.448;2023-06-14T07:44:07;10.48;;;4.85;;
37945;SDS011;23769;52.478;13.448;2023-06-14T07:46:35;9.55;;;5.05;;
37945;SDS011;23769;52.478;13.448;2023-06-14T07:49:03;11.10;;;5.05;;
37945;SDS011;23769;52.478;13.448;2023-06-14T07:51:31;10.15;;;4.78;;
37945;SDS011;23769;52.478;13.448;2023-06-14T07:53:59;6.85;;;4.28;;
37945;SDS011;23769;52.478;13.448;2023-06-14T07:56:27;10.32;;;4.07;;
37945;SDS011;23769;52.478;13.448;2023-06-14T07:58:55;10.68;;;4.65;;
37945;SDS011;23769;52.478;13.448;2023-06-14T08:01:23;13.93;;;4.20;;
37945;SDS011;23769;52.478;13.448;2023-06-14T08:03:50;13.32;;;7.85;;
37945;SDS011;23769;52.478;13.448;2023-06-14T08:06:18;9.15;;;4.20;;
37945;SDS011;23769;52.478;13.448;2023-06-14T08:08:45;5.68;;;4.20;;
37945;SDS011;23769;52.478;13.448;2023-06-14T08:11:12;9.57;;;4.20;;
37945;SDS011;23769;52.478;13.448;2023-06-14T08:13:40;6.50;;;4.07;;
37945;SDS011;23769;52.478;13.448;2023-06-14T08:16:08;6.90;;;3.80;;
37945;SDS011;23769;52.478;13.448;2023-06-14T08:18:36;8.38;;;4.05;;
37945;SDS011;23769;52.478;13.448;2023-06-14T08:21:03;10.07;;;4.25;;
37945;SDS011;23769;52.478;13.448;2023-06-14T08:23:30;5.55;;;4.25;;
37945;SDS011;23769;52.478;13.448;2023-06-14T08:25:58;5.53;;;3.30;;
37945;SDS011;23769;52.478;13.448;2023-06-14T08:28:26;4.68;;;3.42;;
37945;SDS011;23769;52.478;13.448;2023-06-14T08:30:54;9.65;;;3.95;;
37945;SDS011;23769;52.478;13.448;2023-06-14T08:33:22;7.85;;;3.70;;
37945;SDS011;23769;52.478;13.448;2023-06-14T08:35:49;8.05;;;4.65;;
37945;SDS011;23769;52.478;13.448;2023-06-14T08:38:17;6.65;;;3.95;;
37945;SDS011;23769;52.478;13.448;2023-06-14T08:40:44;7.93;;;3.30;;
37945;SDS011;23769;52.478;13.448;2023-06-14T08:43:12;7.63;;;3.50;;
37945;SDS011;23769;52.478;13.448;2023-06-14T08:45:40;8.07;;;3.78;;
37945;SDS011;23769;52.478;13.448;2023-06-14T08:48:07;11.50;;;3.65;;
37945;SDS011;23769;52.478;13.448;2023-06-14T08:50:36;6.78;;;3.47;;
37945;SDS011;23769;52.478;13.448;2023-06-14T08:53:06;10.27;;;3.70;;
37945;SDS011;23769;52.478;13.448;2023-06-14T08:55:35;5.00;;;3.30;;
37945;SDS011;23769;52.478;13.448;2023-06-14T08:58:04;6.75;;;3.10;;
37945;SDS011;23769;52.478;13.448;2023-06-14T09:00:34;4.88;;;3.15;;
37945;SDS011;23769;52.478;13.448;2023-06-14T09:03:03;4.15;;;2.67;;
37945;SDS011;23769;52.478;13.448;2023-06-14T09:05:30;6.38;;;3.17;;
37945;SDS011;23769;52.478;13.448;2023-06-14T09:07:59;7.72;;;3.38;;
37945;SDS011;23769;52.478;13.448;2023-06-14T09:10:26;8.90;;;3.45;;
37945;SDS011;23769;52.478;13.448;2023-06-14T09:12:55;7.47;;;2.90;;
37945;SDS011;23769;52.478;13.448;2023-06-14T09:15:25;9.10;;;2.92;;
37945;SDS011;23769;52.478;13.448;2023-06-14T09:17:52;10.10;;;3.40;;
37945;SDS011;23769;52.478;13.448;2023-06-14T09:20:20;5.68;;;3.25;;
37945;SDS011;23769;52.478;13.448;2023-06-14T09:22:47;6.93;;;3.15;;
37945;SDS011;23769;52.478;13.448;2023-06-14T09:25:16;4.13;;;3.00;;
37945;SDS011;23769;52.478;13.448;2023-06-14T09:27:45;7.63;;;2.95;;
37945;SDS011;23769;52.478;13.448;2023-06-14T09:30:14;7.22;;;2.80;;
37945;SDS011;23769;52.478;13.448;2023-06-14T09:32:41;6.57;;;3.20;;
37945;SDS011;23769;52.478;13.448;2023-06-14T09:35:09;4.38;;;3.65;;
37945;SDS011;23769;52.478;13.448;2023-06-14T09:37:36;6.85;;;3.30;;
37945;SDS011;23769;52.478;13.448;2023-06-14T09:40:04;5.53;;;2.95;;
37945;SDS011;23769;52.478;13.448;2023-06-14T09:42:33;8.10;;;3.30;;
37945;SDS011;23769;52.478;13.448;2023-06-14T09:45:02;9.25;;;3.30;;
37945;SDS011;23769;52.478;13.448;2023-06-14T09:47:30;3.97;;;3.03;;
37945;SDS011;23769;52.478;13.448;2023-06-14T09:49:57;6.10;;;3.38;;
37945;SDS011;23769;52.478;13.448;2023-06-14T09:52:25;6.47;;;3.70;;
37945;SDS011;23769;52.478;13.448;2023-06-14T09:54:53;14.75;;;10.45;;
37945;SDS011;23769;52.478;13.448;2023-06-14T09:57:22;11.13;;;7.28;;
37945;SDS011;23769;52.478;13.448;2023-06-14T09:59:56;10.55;;;5.40;;
37945;SDS011;23769;52.478;13.448;2023-06-14T10:02:28;7.07;;;4.30;;
37945;SDS011;23769;52.478;13.448;2023-06-14T10:04:58;12.45;;;3.83;;
37945;SDS011;23769;52.478;13.448;2023-06-14T10:07:32;5.45;;;3.63;;
37945;SDS011;23769;52.478;13.448;2023-06-14T10:10:01;4.88;;;3.33;;
37945;SDS011;23769;52.478;13.448;2023-06-14T10:14:58;6.15;;;2.95;;
37945;SDS011;23769;52.478;13.448;2023-06-14T10:17:27;6.43;;;3.10;;
37945;SDS011;23769;52.478;13.448;2023-06-14T10:20:06;4.28;;;3.22;;
37945;SDS011;23769;52.478;13.448;2023-06-14T10:22:35;5.90;;;3.22;;
37945;SDS011;23769;52.478;13.448;2023-06-14T10:25:06;7.15;;;3.28;;
37945;SDS011;23769;52.478;13.448;2023-06-14T10:27:37;10.48;;;3.70;;
37945;SDS011;23769;52.478;13.448;2023-06-14T10:30:07;6.82;;;3.47;;
37945;SDS011;23769;52.478;13.448;2023-06-14T10:32:34;7.25;;;3.47;;
37945;SDS011;23769;52.478;13.448;2023-06-14T10:35:04;8.38;;;3.78;;
37945;SDS011;23769;52.478;13.448;2023-06-14T10:37:32;7.43;;;3.30;;
37945;SDS011;23769;52.478;13.448;2023-06-14T10:40:00;6.15;;;3.28;;
37945;SDS011;23769;52.478;13.448;2023-06-14T10:42:28;5.55;;;3.40;;
37945;SDS011;23769;52.478;13.448;2023-06-14T10:44:55;7.25;;;3.60;;
37945;SDS011;23769;52.478;13.448;2023-06-14T10:47:26;6.78;;;3.65;;
37945;SDS011;23769;52.478;13.448;2023-06-14T10:49:54;8.43;;;3.28;;
37945;SDS011;23769;52.478;13.448;2023-06-14T10:52:23;6.95;;;3.47;;
37945;SDS011;23769;52.478;13.448;2023-06-14T10:54:59;5.28;;;3.25;;
37945;SDS011;23769;52.478;13.448;2023-06-14T10:57:26;4.60;;;3.17;;
37945;SDS011;23769;52.478;13.448;2023-06-14T10:59:53;8.38;;;3.40;;
37945;SDS011;23769;52.478;13.448;2023-06-14T11:02:34;7.65;;;3.53;;
37945;SDS011;23769;52.478;13.448;2023-06-14T11:05:08;6.22;;;3.97;;
37945;SDS011;23769;52.478;13.448;2023-06-14T11:07:38;7.88;;;4.55;;
37945;SDS011;23769;52.478;13.448;2023-06-14T11:10:10;8.75;;;5.55;;
37945;SDS011;23769;52.478;13.448;2023-06-14T11:12:41;6.60;;;4.35;;
37945;SDS011;23769;52.478;13.448;2023-06-14T11:15:12;6.95;;;3.90;;
37945;SDS011;23769;52.478;13.448;2023-06-14T11:17:41;6.57;;;3.80;;
37945;SDS011;23769;52.478;13.448;2023-06-14T11:20:18;6.93;;;3.42;;
37945;SDS011;23769;52.478;13.448;2023-06-14T11:22:46;8.20;;;3.60;;
37945;SDS011;23769;52.478;13.448;2023-06-14T11:25:14;5.03;;;2.75;;
37945;SDS011;23769;52.478;13.448;2023-06-14T11:27:41;7.82;;;3.60;;
37945;SDS011;23769;52.478;13.448;2023-06-14T11:30:09;7.95;;;3.53;;
37945;SDS011;23769;52.478;13.448;2023-06-14T11:32:37;6.28;;;3.10;;
37945;SDS011;23769;52.478;13.448;2023-06-14T11:35:06;7.32;;;2.97;;
37945;SDS011;23769;52.478;13.448;2023-06-14T11:37:35;5.63;;;3.05;;
37945;SDS011;23769;52.478;13.448;2023-06-14T11:40:03;6.30;;;3.10;;
37945;SDS011;23769;52.478;13.448;2023-06-14T11:42:33;4.32;;;2.83;;
37945;SDS011;23769;52.478;13.448;2023-06-14T11:45:00;6.35;;;3.55;;
37945;SDS011;23769;52.478;13.448;2023-06-14T11:47:31;6.82;;;2.83;;
37945;SDS011;23769;52.478;13.448;2023-06-14T11:49:58;5.30;;;3.22;;
37945;SDS011;23769;52.478;13.448;2023-06-14T11:52:27;5.13;;;3.60;;
37945;SDS011;23769;52.478;13.448;2023-06-14T11:54:56;5.65;;;3.20;;
37945;SDS011;23769;52.478;13.448;2023-06-14T11:57:23;10.32;;;3.72;;
37945;SDS011;23769;52.478;13.448;2023-06-14T11:59:51;5.75;;;3.28;;
37945;SDS011;23769;52.478;13.448;2023-06-14T12:02:18;9.27;;;4.20;;
37945;SDS011;23769;52.478;13.448;2023-06-14T12:04:46;4.75;;;3.10;;
37945;SDS011;23769;52.478;13.448;2023-06-14T12:07:14;5.65;;;3.40;;
37945;SDS011;23769;52.478;13.448;2023-06-14T12:10:03;8.77;;;3.00;;
37945;SDS011;23769;52.478;13.448;2023-06-14T12:12:34;6.60;;;2.90;;
37945;SDS011;23769;52.478;13.448;2023-06-14T12:15:03;6.00;;;3.10;;
37945;SDS011;23769;52.478;13.448;2023-06-14T12:17:31;8.50;;;3.47;;
37945;SDS011;23769;52.478;13.448;2023-06-14T12:19:59;5.78;;;3.33;;
37945;SDS011;23769;52.478;13.448;2023-06-14T12:22:33;7.20;;;3.22;;
37945;SDS011;23769;52.478;13.448;2023-06-14T12:25:02;20.35;;;10.70;;
37945;SDS011;23769;52.478;13.448;2023-06-14T12:27:29;7.75;;;3.20;;
37945;SDS011;23769;52.478;13.448;2023-06-14T12:30:00;5.47;;;3.00;;
37945;SDS011;23769;52.478;13.448;2023-06-14T12:32:27;6.05;;;2.83;;
37945;SDS011;23769;52.478;13.448;2023-06-14T12:34:55;13.55;;;3.28;;
37945;SDS011;23769;52.478;13.448;2023-06-14T12:37:22;7.57;;;3.70;;
37945;SDS011;23769;52.478;13.448;2023-06-14T12:39:49;15.45;;;4.15;;
37945;SDS011;23769;52.478;13.448;2023-06-14T12:42:18;6.85;;;3.30;;
37945;SDS011;23769;52.478;13.448;2023-06-14T12:44:45;8.88;;;3.30;;
37945;SDS011;23769;52.478;13.448;2023-06-14T12:47:12;4.70;;;2.60;;
37945;SDS011;23769;52.478;13.448;2023-06-14T12:49:40;5.88;;;3.50;;
37945;SDS011;23769;52.478;13.448;2023-06-14T12:52:07;5.43;;;2.92;;
37945;SDS011;23769;52.478;13.448;2023-06-14T12:54:35;5.95;;;3.22;;
37945;SDS011;23769;52.478;13.448;2023-06-14T12:57:04;6.18;;;3.17;;
37945;SDS011;23769;52.478;13.448;2023-06-14T12:59:33;6.25;;;3.20;;
37945;SDS011;23769;52.478;13.448;2023-06-14T13:02:10;5.90;;;3.05;;
37945;SDS011;23769;52.478;13.448;2023-06-14T13:04:37;8.63;;;2.83;;
37945;SDS011;23769;52.478;13.448;2023-06-14T13:07:05;8.18;;;3.55;;
37945;SDS011;23769;52.478;13.448;2023-06-14T13:09:32;7.78;;;3.08;;
37945;SDS011;23769;52.478;13.448;2023-06-14T13:11:59;7.03;;;3.10;;
37945;SDS011;23769;52.478;13.448;2023-06-14T13:14:26;7.78;;;3.67;;
37945;SDS011;23769;52.478;13.448;2023-06-14T13:16:55;5.55;;;3.08;;
37945;SDS011;23769;52.478;13.448;2023-06-14T13:19:22;10.23;;;4.00;;
37945;SDS011;23769;52.478;13.448;2023-06-14T13:21:50;8.35;;;3.40;;
37945;SDS011;23769;52.478;13.448;2023-06-14T13:24:17;4.82;;;2.55;;
37945;SDS011;23769;52.478;13.448;2023-06-14T13:26:44;9.00;;;4.30;;
37945;SDS011;23769;52.478;13.448;2023-06-14T13:29:11;9.13;;;3.58;;
37945;SDS011;23769;52.478;13.448;2023-06-14T13:31:38;4.38;;;2.60;;
37945;SDS011;23769;52.478;13.448;2023-06-14T13:34:07;4.15;;;2.75;;
37945;SDS011;23769;52.478;13.448;2023-06-14T13:36:34;7.40;;;3.65;;
37945;SDS011;23769;52.478;13.448;2023-06-14T13:39:01;7.10;;;4.05;;
37945;SDS011;23769;52.478;13.448;2023-06-14T13:41:29;5.15;;;3.42;;
37945;SDS011;23769;52.478;13.448;2023-06-14T13:43:58;6.97;;;2.97;;
37945;SDS011;23769;52.478;13.448;2023-06-14T13:46:26;7.75;;;3.70;;
37945;SDS011;23769;52.478;13.448;2023-06-14T13:48:53;11.10;;;4.40;;
37945;SDS011;23769;52.478;13.448;2023-06-14T13:51:22;6.50;;;3.33;;
37945;SDS011;23769;52.478;13.448;2023-06-14T13:53:49;7.05;;;3.42;;
37945;SDS011;23769;52.478;13.448;2023-06-14T13:56:16;8.20;;;3.65;;
37945;SDS011;23769;52.478;13.448;2023-06-14T13:58:44;8.45;;;2.75;;
37945;SDS011;23769;52.478;13.448;2023-06-14T14:01:11;7.78;;;2.72;;
37945;SDS011;23769;52.478;13.448;2023-06-14T14:03:38;5.03;;;3.08;;
37945;SDS011;23769;52.478;13.448;2023-06-14T14:06:06;5.63;;;2.90;;
37945;SDS011;23769;52.478;13.448;2023-06-14T14:08:34;5.80;;;2.88;;
37945;SDS011;23769;52.478;13.448;2023-06-14T14:11:02;5.20;;;3.08;;
37945;SDS011;23769;52.478;13.448;2023-06-14T14:13:29;5.43;;;2.83;;
37945;SDS011;23769;52.478;13.448;2023-06-14T14:15:56;5.00;;;3.33;;
37945;SDS011;23769;52.478;13.448;2023-06-14T14:18:24;14.10;;;4.32;;
37945;SDS011;23769;52.478;13.448;2023-06-14T14:20:51;7.50;;;3.30;;
37945;SDS011;23769;52.478;13.448;2023-06-14T14:23:18;5.88;;;3.00;;
37945;SDS011;23769;52.478;13.448;2023-06-14T14:25:47;7.10;;;3.40;;
37945;SDS011;23769;52.478;13.448;2023-06-14T14:28:14;5.18;;;3.13;;
37945;SDS011;23769;52.478;13.448;2023-06-14T14:30:44;7.20;;;2.97;;
37945;SDS011;23769;52.478;13.448;2023-06-14T14:33:12;8.82;;;2.80;;
37945;SDS011;23769;52.478;13.448;2023-06-14T14:35:41;5.60;;;3.10;;
37945;SDS011;23769;52.478;13.448;2023-06-14T14:38:09;6.90;;;3.20;;
37945;SDS011;23769;52.478;13.448;2023-06-14T14:40:36;6.95;;;3.28;;
37945;SDS011;23769;52.478;13.448;2023-06-14T14:43:05;9.65;;;3.90;;
37945;SDS011;23769;52.478;13.448;2023-06-14T14:45:32;6.95;;;3.00;;
37945;SDS011;23769;52.478;13.448;2023-06-14T14:48:00;7.93;;;3.50;;